createdAt,value
2022-11-29T00:00:56.980Z,8.1
2022-11-29T00:02:10.271Z,8.1
2022-11-29T00:03:23.120Z,8.1
2022-11-29T00:04:35.999Z,8.1
2022-11-29T00:05:48.965Z,8.1
2022-11-29T00:07:02.023Z,8.1
2022-11-29T00:08:15.029Z,8.1
2022-11-29T00:09:28.041Z,8.1
2022-11-29T00:10:41.013Z,8.1
2022-11-29T00:13:07.051Z,8.1
2022-11-29T00:14:20.042Z,8.1
2022-11-29T00:15:33.237Z,8.1
2022-11-29T00:16:46.043Z,8.1
2022-11-29T00:17:59.066Z,8.1
2022-11-29T00:19:12.060Z,8.1
2022-11-29T00:20:25.174Z,8.1
2022-11-29T00:21:37.898Z,8.1
2022-11-29T00:22:51.026Z,8.1
2022-11-29T00:24:04.028Z,8.1
2022-11-29T00:25:17.117Z,8.1
2022-11-29T00:26:30.052Z,8.1
2022-11-29T00:27:43.133Z,8.1
2022-11-29T00:28:55.719Z,8.1
2022-11-29T00:30:08.997Z,8.1
2022-11-29T00:31:22.430Z,8.1
2022-11-29T00:32:34.907Z,8.1
2022-11-29T00:33:47.824Z,8.3
2022-11-29T00:35:04.053Z,8.3
2022-11-29T00:36:14.321Z,8.3
2022-11-29T00:37:27.243Z,8.3
2022-11-29T00:38:40.268Z,8.3
2022-11-29T00:39:53.159Z,8.3
2022-11-29T00:41:06.070Z,8.3
2022-11-29T00:42:19.069Z,8.3
2022-11-29T00:43:32.068Z,8.3
2022-11-29T00:44:45.347Z,8.3
2022-11-29T00:48:23.932Z,8.3
2022-11-29T00:49:37.083Z,8.3
2022-11-29T00:50:50.046Z,8.3
2022-11-29T00:53:15.918Z,8.3
2022-11-29T00:54:28.926Z,8.3
2022-11-29T00:55:42.079Z,8.3
2022-11-29T00:56:54.794Z,8.3
2022-11-29T00:58:08.029Z,8.3
2022-11-29T00:59:21.071Z,8.3
2022-11-29T01:03:00.109Z,8.3
2022-11-29T01:04:13.264Z,8.3
2022-11-29T01:05:26.092Z,8.3
2022-11-29T01:06:39.033Z,8.3
2022-11-29T01:07:52.394Z,8.3
2022-11-29T01:09:04.935Z,8.3
2022-11-29T01:10:18.076Z,8.3
2022-11-29T01:11:31.092Z,8.3
2022-11-29T01:12:44.062Z,8.3
2022-11-29T01:13:57.269Z,8.3
2022-11-29T01:15:10.090Z,8.3
2022-11-29T01:17:36.079Z,8.4
2022-11-29T01:18:49.082Z,8.4
2022-11-29T01:20:02.278Z,8.4
2022-11-29T01:21:15.085Z,8.4
2022-11-29T01:22:28.105Z,8.4
2022-11-29T01:23:41.091Z,8.4
2022-11-29T01:24:53.995Z,8.4
2022-11-29T01:26:07.096Z,8.4
2022-11-29T01:27:19.954Z,8.4
2022-11-29T01:29:46.398Z,8.4
2022-11-29T01:30:58.998Z,8.4
2022-11-29T01:33:25.465Z,8.4
2022-11-29T01:34:38.045Z,8.4
2022-11-29T01:35:51.082Z,8.4
2022-11-29T01:38:17.314Z,8.4
2022-11-29T01:39:30.068Z,8.4
2022-11-29T01:40:42.960Z,8.4
2022-11-29T01:43:08.879Z,8.4
2022-11-29T01:44:22.095Z,8.4
2022-11-29T01:45:35.066Z,8.4
2022-11-29T01:46:48.071Z,8.4
2022-11-29T01:48:01.070Z,8.4
2022-11-29T01:49:14.094Z,8.4
2022-11-29T01:50:27.048Z,8.4
2022-11-29T01:51:40.054Z,8.4
2022-11-29T01:52:53.197Z,8.4
2022-11-29T01:54:05.966Z,8.4
2022-11-29T01:55:19.112Z,8.4
2022-11-29T01:57:45.066Z,8.4
2022-11-29T01:58:58.089Z,8.4
2022-11-29T02:00:10.990Z,8.4
2022-11-29T02:01:24.579Z,8.4
2022-11-29T02:02:37.193Z,8.4
2022-11-29T02:03:50.577Z,8.4
2022-11-29T02:05:03.180Z,8.4
2022-11-29T02:06:16.020Z,8.4
2022-11-29T02:07:29.150Z,8.4
2022-11-29T02:08:42.115Z,8.4
2022-11-29T02:09:55.341Z,8.4
2022-11-29T02:11:08.070Z,8.4
2022-11-29T02:12:21.129Z,8.4
2022-11-29T02:14:47.311Z,8.4
2022-11-29T02:15:59.975Z,8.4
2022-11-29T02:17:12.919Z,8.4
2022-11-29T02:18:26.099Z,8.4
2022-11-29T02:19:39.083Z,8.4
2022-11-29T02:20:52.044Z,8.4
2022-11-29T02:22:05.127Z,8.4
2022-11-29T02:23:17.937Z,8.4
2022-11-29T02:24:31.062Z,8.4
2022-11-29T02:28:10.068Z,8.4
2022-11-29T02:29:23.473Z,8.4
2022-11-29T02:30:36.200Z,8.4
2022-11-29T02:31:49.074Z,8.4
2022-11-29T02:33:02.072Z,8.4
2022-11-29T02:34:15.117Z,8.4
2022-11-29T02:36:40.959Z,8.4
2022-11-29T02:37:54.070Z,8.4
2022-11-29T02:39:06.785Z,8.4
2022-11-29T02:40:20.098Z,8.4
2022-11-29T02:41:33.367Z,8.4
2022-11-29T02:43:59.359Z,8.4
2022-11-29T02:45:11.782Z,8.4
2022-11-29T02:46:25.310Z,8.4
2022-11-29T02:47:38.103Z,8.4
2022-11-29T02:48:50.923Z,8.4
2022-11-29T02:51:17.094Z,8.4
2022-11-29T02:52:30.113Z,8.4
2022-11-29T02:53:43.118Z,8.3
2022-11-29T02:54:56.114Z,8.3
2022-11-29T02:56:08.910Z,8.3
2022-11-29T02:57:22.096Z,8.3
2022-11-29T02:58:34.957Z,8.3
2022-11-29T02:59:48.701Z,8.3
2022-11-29T03:02:14.326Z,8.3
2022-11-29T03:03:27.071Z,8.3
2022-11-29T03:04:40.124Z,8.3
2022-11-29T03:05:53.225Z,8.3
2022-11-29T03:07:06.099Z,8.3
2022-11-29T03:08:19.077Z,8.3
2022-11-29T03:09:32.139Z,8.3
2022-11-29T03:10:45.289Z,8.3
2022-11-29T03:11:57.964Z,8.3
2022-11-29T03:13:11.095Z,8.3
2022-11-29T03:14:24.494Z,8.3
2022-11-29T03:15:37.131Z,8.3
2022-11-29T03:16:49.945Z,8.3
2022-11-29T03:18:03.139Z,8.3
2022-11-29T03:19:16.107Z,8.3
2022-11-29T03:20:29.266Z,8.3
2022-11-29T03:21:42.085Z,8.3
2022-11-29T03:22:55.086Z,8.3
2022-11-29T03:24:08.192Z,8.3
2022-11-29T03:25:21.097Z,8.3
2022-11-29T03:26:34.093Z,8.3
2022-11-29T03:27:47.719Z,8.3
2022-11-29T03:29:00.136Z,8.3
2022-11-29T03:30:12.973Z,8.3
2022-11-29T03:31:26.708Z,8.3
2022-11-29T03:32:38.926Z,8.3
2022-11-29T03:33:52.071Z,8.3
2022-11-29T03:35:05.193Z,8.3
2022-11-29T03:36:19.332Z,8.3
2022-11-29T03:37:31.099Z,8.3
2022-11-29T03:38:43.897Z,8.3
2022-11-29T03:39:57.156Z,8.3
2022-11-29T03:41:09.815Z,8.3
2022-11-29T03:42:23.111Z,8.3
2022-11-29T03:43:36.124Z,8.3
2022-11-29T03:44:49.303Z,8.3
2022-11-29T03:46:02.498Z,8.3
2022-11-29T03:47:14.892Z,8.3
2022-11-29T03:48:28.021Z,8.3
2022-11-29T03:49:41.096Z,8.3
2022-11-29T03:50:54.627Z,8.3
2022-11-29T03:52:07.134Z,8.3
2022-11-29T03:53:20.548Z,8.3
2022-11-29T03:54:32.865Z,8.4
2022-11-29T03:55:45.993Z,8.4
2022-11-29T03:56:59.306Z,8.4
2022-11-29T03:58:12.002Z,8.4
2022-11-29T03:59:25.287Z,8.4
2022-11-29T04:01:51.153Z,8.4
2022-11-29T04:03:04.315Z,8.4
2022-11-29T04:04:17.115Z,8.4
2022-11-29T04:05:29.960Z,8.4
2022-11-29T04:06:43.092Z,8.4
2022-11-29T04:07:56.081Z,8.4
2022-11-29T04:09:09.144Z,8.4
2022-11-29T04:10:22.120Z,8.4
2022-11-29T04:11:34.840Z,8.4
2022-11-29T04:12:48.080Z,8.4
2022-11-29T04:14:01.452Z,8.3
2022-11-29T04:15:15.524Z,8.3
2022-11-29T04:16:27.462Z,8.3
2022-11-29T04:17:40.271Z,8.4
2022-11-29T04:18:53.226Z,8.4
2022-11-29T04:20:05.993Z,8.4
2022-11-29T04:21:19.433Z,8.4
2022-11-29T04:23:44.802Z,8.4
2022-11-29T04:24:58.279Z,8.4
2022-11-29T04:26:11.094Z,8.4
2022-11-29T04:27:24.200Z,8.4
2022-11-29T04:28:36.967Z,8.4
2022-11-29T04:31:03.174Z,8.4
2022-11-29T04:32:16.317Z,8.4
2022-11-29T04:33:29.432Z,8.4
2022-11-29T04:34:42.428Z,8.4
2022-11-29T04:35:55.131Z,8.4
2022-11-29T04:38:21.141Z,8.3
2022-11-29T04:39:33.979Z,8.3
2022-11-29T04:42:00.730Z,8.3
2022-11-29T04:44:26.094Z,8.3
2022-11-29T04:45:39.127Z,8.3
2022-11-29T04:46:51.986Z,8.3
2022-11-29T04:48:05.166Z,8.3
2022-11-29T04:49:18.013Z,8.3
2022-11-29T04:51:43.997Z,8.3
2022-11-29T04:52:56.773Z,8.3
2022-11-29T04:54:10.122Z,8.3
2022-11-29T04:55:29.367Z,8.3
2022-11-29T04:56:36.534Z,8.3
2022-11-29T04:59:01.984Z,8.3
2022-11-29T05:00:15.567Z,8.3
2022-11-29T05:01:28.177Z,8.3
2022-11-29T05:02:41.406Z,8.3
2022-11-29T05:05:07.180Z,8.3
2022-11-29T05:06:20.168Z,8.3
2022-11-29T05:07:33.197Z,8.3
2022-11-29T05:08:45.994Z,8.3
2022-11-29T05:11:12.674Z,8.3
2022-11-29T05:12:25.142Z,8.3
2022-11-29T05:13:37.836Z,8.3
2022-11-29T05:14:51.137Z,8.3
2022-11-29T05:16:04.210Z,8.3
2022-11-29T05:17:17.316Z,8.3
2022-11-29T05:18:30.192Z,8.3
2022-11-29T05:19:43.125Z,8.3
2022-11-29T05:22:09.121Z,8.3
2022-11-29T05:23:22.134Z,8.3
2022-11-29T05:24:35.796Z,8.3
2022-11-29T05:25:48.163Z,8.3
2022-11-29T05:27:01.137Z,8.3
2022-11-29T05:28:14.292Z,8.3
2022-11-29T05:29:27.143Z,8.3
2022-11-29T05:30:40.031Z,8.3
2022-11-29T05:31:53.178Z,8.3
2022-11-29T05:33:06.465Z,8.3
2022-11-29T05:34:19.475Z,8.3
2022-11-29T05:35:31.991Z,8.3
2022-11-29T05:36:45.151Z,8.3
2022-11-29T05:37:58.150Z,8.3
2022-11-29T05:39:11.041Z,8.3
2022-11-29T05:40:24.042Z,8.2
2022-11-29T05:41:37.021Z,8.1
2022-11-29T05:42:50.027Z,8.1
2022-11-29T05:44:02.995Z,8.1
2022-11-29T05:45:16.176Z,8.1
2022-11-29T05:46:29.064Z,8.1
2022-11-29T05:47:41.928Z,8.1
2022-11-29T05:48:55.113Z,8.1
2022-11-29T05:50:08.107Z,8.1
2022-11-29T05:52:34.011Z,8.1
2022-11-29T05:55:00.137Z,8.2
2022-11-29T05:56:13.249Z,8.2
2022-11-29T05:57:26.231Z,8.2
2022-11-29T05:58:39.099Z,8.2
2022-11-29T05:59:52.150Z,8.2
2022-11-29T06:01:05.722Z,8.1
2022-11-29T06:02:18.533Z,8.1
2022-11-29T06:03:31.175Z,8.1
2022-11-29T06:04:44.668Z,8.1
2022-11-29T06:05:57.198Z,8.1
2022-11-29T06:07:10.162Z,8.1
2022-11-29T06:08:23.137Z,8.1
2022-11-29T06:09:36.756Z,8.1
2022-11-29T06:12:02.094Z,8.1
2022-11-29T06:13:15.154Z,8.1
2022-11-29T06:14:28.308Z,8.1
2022-11-29T06:15:41.502Z,8.1
2022-11-29T06:16:54.183Z,8.1
2022-11-29T06:18:07.709Z,8.1
2022-11-29T06:19:20.168Z,8.1
2022-11-29T06:20:33.234Z,8.1
2022-11-29T06:21:46.167Z,8.1
2022-11-29T06:22:59.844Z,8.1
2022-11-29T06:24:12.159Z,8.1
2022-11-29T06:27:51.188Z,8.1
2022-11-29T06:29:04.190Z,8.1
2022-11-29T06:30:17.014Z,8.1
2022-11-29T06:33:56.168Z,8.1
2022-11-29T06:35:09.146Z,8.1
2022-11-29T06:40:01.104Z,8.1
2022-11-29T06:41:14.189Z,8.1
2022-11-29T06:42:27.007Z,8.1
2022-11-29T06:46:06.171Z,8.1
2022-11-29T06:47:19.750Z,8.1
2022-11-29T06:48:32.175Z,8.1
2022-11-29T06:50:58.541Z,8.1
2022-11-29T06:53:24.071Z,7.9
2022-11-29T06:54:37.270Z,7.9
2022-11-29T06:55:50.359Z,7.9
2022-11-29T06:57:03.137Z,7.9
2022-11-29T06:59:29.148Z,7.9
2022-11-29T07:00:42.024Z,7.9
2022-11-29T07:01:55.607Z,7.9
2022-11-29T07:03:08.094Z,7.9
2022-11-29T07:04:20.978Z,7.9
2022-11-29T07:05:33.972Z,7.9
2022-11-29T07:06:46.948Z,7.9
2022-11-29T07:08:00.508Z,7.9
2022-11-29T07:09:13.086Z,7.9
2022-11-29T07:10:25.820Z,7.9
2022-11-29T07:11:39.149Z,7.9
2022-11-29T07:12:51.946Z,7.9
2022-11-29T07:14:05.183Z,7.9
2022-11-29T07:15:17.971Z,7.9
2022-11-29T07:16:31.263Z,7.9
2022-11-29T07:17:44.076Z,7.9
2022-11-29T07:18:56.794Z,7.9
2022-11-29T07:20:10.105Z,7.9
2022-11-29T07:21:23.091Z,7.9
2022-11-29T07:22:36.322Z,7.9
2022-11-29T07:23:48.849Z,7.9
2022-11-29T07:25:02.190Z,7.9
2022-11-29T07:26:15.125Z,7.9
2022-11-29T07:27:27.989Z,7.9
2022-11-29T07:28:41.130Z,7.9
2022-11-29T07:29:53.966Z,7.9
2022-11-29T07:31:07.152Z,7.9
2022-11-29T07:32:20.120Z,7.9
2022-11-29T07:33:33.384Z,7.9
2022-11-29T07:34:46.478Z,7.9
2022-11-29T07:37:11.956Z,7.9
2022-11-29T07:38:25.214Z,7.9
2022-11-29T07:39:38.080Z,7.9
2022-11-29T07:40:51.059Z,7.9
2022-11-29T07:42:04.100Z,7.9
2022-11-29T07:43:16.990Z,7.9
2022-11-29T07:44:30.065Z,7.9
2022-11-29T07:45:42.842Z,7.9
2022-11-29T07:46:56.117Z,7.9
2022-11-29T07:48:09.580Z,7.9
2022-11-29T07:49:22.170Z,7.9
2022-11-29T07:50:34.820Z,7.9
2022-11-29T07:51:48.104Z,7.9
2022-11-29T07:53:01.659Z,7.9
2022-11-29T07:54:13.942Z,7.9
2022-11-29T07:55:27.109Z,7.9
2022-11-29T07:56:39.979Z,7.9
2022-11-29T07:57:52.789Z,7.9
2022-11-29T07:59:06.212Z,7.9
2022-11-29T08:00:18.965Z,7.9
2022-11-29T08:01:32.124Z,7.9
2022-11-29T08:02:45.114Z,7.9
2022-11-29T08:03:58.085Z,7.9
2022-11-29T08:05:11.187Z,7.9
2022-11-29T08:07:36.935Z,7.9
2022-11-29T08:08:50.175Z,7.8
2022-11-29T08:10:03.472Z,7.9
2022-11-29T08:11:16.177Z,7.8
2022-11-29T08:12:28.819Z,7.8
2022-11-29T08:13:42.134Z,7.9
2022-11-29T08:14:54.970Z,7.9
2022-11-29T08:16:08.320Z,7.9
2022-11-29T08:17:21.233Z,7.9
2022-11-29T08:19:47.128Z,7.9
2022-11-29T08:21:00.154Z,7.9
2022-11-29T08:22:13.112Z,7.9
2022-11-29T08:23:26.486Z,7.9
2022-11-29T08:24:39.414Z,7.9
2022-11-29T08:25:52.157Z,7.9
2022-11-29T08:27:05.205Z,7.9
2022-11-29T08:28:18.054Z,7.9
2022-11-29T08:29:30.806Z,7.9
2022-11-29T08:31:57.184Z,7.9
2022-11-29T08:33:10.045Z,7.9
2022-11-29T08:34:23.126Z,7.9
2022-11-29T08:35:36.136Z,8.1
2022-11-29T08:36:49.624Z,8.1
2022-11-29T08:38:01.967Z,8.1
2022-11-29T08:39:14.994Z,8.1
2022-11-29T08:40:28.172Z,8.1
2022-11-29T08:41:41.133Z,8.1
2022-11-29T08:42:54.230Z,8.1
2022-11-29T08:44:07.671Z,8.1
2022-11-29T08:45:20.148Z,8.1
2022-11-29T08:46:33.473Z,8.1
2022-11-29T08:48:59.115Z,8.1
2022-11-29T08:50:11.870Z,8.1
2022-11-29T08:51:25.550Z,8.1
2022-11-29T08:52:38.143Z,8.1
2022-11-29T08:55:04.219Z,8.1
2022-11-29T08:57:40.655Z,8.1
2022-11-29T08:58:43.611Z,8.1
2022-11-29T09:01:08.985Z,8.1
2022-11-29T09:02:22.158Z,8.1
2022-11-29T09:09:40.254Z,8.1
2022-11-29T09:12:06.150Z,8.1
2022-11-29T09:13:19.163Z,8
2022-11-29T09:14:32.163Z,8.1
2022-11-29T09:15:45.124Z,8.1
2022-11-29T09:16:58.160Z,8.1
2022-11-29T09:18:11.386Z,8.1
2022-11-29T09:19:24.016Z,8.1
2022-11-29T09:20:37.129Z,8.1
2022-11-29T09:21:50.145Z,8.1
2022-11-29T09:23:02.950Z,8.1
2022-11-29T09:24:16.118Z,8.1
2022-11-29T09:26:42.127Z,8.1
2022-11-29T09:27:55.083Z,8.1
2022-11-29T09:29:08.122Z,8.1
2022-11-29T09:31:34.139Z,8.1
2022-11-29T09:32:47.360Z,8.1
2022-11-29T09:35:13.745Z,8.1
2022-11-29T09:36:28.705Z,8.1
2022-11-29T09:38:52.122Z,8.1
2022-11-29T09:41:18.008Z,8.1
2022-11-29T09:42:30.850Z,8.1
2022-11-29T09:43:44.764Z,8.1
2022-11-29T09:44:57.143Z,8.1
2022-11-29T09:47:22.998Z,8.1
2022-11-29T09:48:36.012Z,8.1
2022-11-29T09:49:49.001Z,8.1
2022-11-29T09:54:41.184Z,8.1
2022-11-29T09:57:10.503Z,8.1
2022-11-29T09:58:20.021Z,8.1
2022-11-29T10:03:12.032Z,8.1
2022-11-29T10:05:37.884Z,8.2
2022-11-29T10:10:30.102Z,8.1
2022-11-29T10:11:42.926Z,8.1
2022-11-29T10:12:56.232Z,8.1
2022-11-29T10:15:22.102Z,8.1
2022-11-29T10:17:47.992Z,8.1
2022-11-29T10:19:01.018Z,8.3
2022-11-29T10:20:14.722Z,8.3
2022-11-29T10:21:27.044Z,8.3
2022-11-29T10:22:39.938Z,8.3
2022-11-29T10:23:53.127Z,8.3
2022-11-29T10:26:19.264Z,8.3
2022-11-29T10:27:31.860Z,8.4
2022-11-29T10:28:45.438Z,8.4
2022-11-29T10:31:11.363Z,8.4
2022-11-29T10:32:24.066Z,8.4
2022-11-29T10:36:02.992Z,8.5
2022-11-29T10:38:31.027Z,8.5
2022-11-29T10:40:55.251Z,8.5
2022-11-29T10:43:21.138Z,8.5
2022-11-29T10:45:49.304Z,8.5
2022-11-29T10:49:25.920Z,8.7
2022-11-29T10:54:17.984Z,8.7
2022-11-29T10:55:31.145Z,8.7
2022-11-29T10:56:44.153Z,8.7
2022-11-29T10:57:57.246Z,8.7
2022-11-29T10:59:10.001Z,8.7
2022-11-29T11:00:23.055Z,8.7
2022-11-29T11:01:36.276Z,8.7
2022-11-29T11:05:15.372Z,8.8
2022-11-29T11:07:41.244Z,8.8
2022-11-29T11:13:46.185Z,8.7
2022-11-29T11:16:12.277Z,8.7
2022-11-29T11:17:24.995Z,8.7
2022-11-29T11:18:38.126Z,8.7
2022-11-29T11:19:51.177Z,8.7
2022-11-29T11:21:04.020Z,8.7
2022-11-29T11:22:17.001Z,8.7
2022-11-29T11:23:30.535Z,8.9
2022-11-29T11:24:43.382Z,8.9
2022-11-29T11:28:22.012Z,8.9
2022-11-29T11:29:35.390Z,8.9
2022-11-29T11:30:48.044Z,8.9
2022-11-29T11:32:01.071Z,8.9
2022-11-29T11:33:14.153Z,8.9
2022-11-29T11:34:26.940Z,8.9
2022-11-29T11:35:39.981Z,8.9
2022-11-29T11:36:52.913Z,8.9
2022-11-29T11:38:05.884Z,8.9
2022-11-29T11:39:18.944Z,8.9
2022-11-29T11:41:45.356Z,8.9
2022-11-29T11:42:58.075Z,8.9
2022-11-29T11:44:15.201Z,8.9
2022-11-29T11:45:24.268Z,8.9
2022-11-29T11:47:49.879Z,8.9
2022-11-29T11:49:03.129Z,8.9
2022-11-29T11:50:15.937Z,8.9
2022-11-29T11:52:46.229Z,8.9
2022-11-29T11:53:55.281Z,8.9
2022-11-29T11:55:08.171Z,8.9
2022-11-29T11:56:21.191Z,8.9
2022-11-29T11:57:34.194Z,8.8
2022-11-29T11:58:47.019Z,8.7
2022-11-29T12:01:13.026Z,8.9
2022-11-29T12:03:39.199Z,8.9
2022-11-29T12:04:52.055Z,8.9
2022-11-29T12:07:18.165Z,8.9
2022-11-29T12:08:30.944Z,8.9
2022-11-29T12:09:44.054Z,8.9
2022-11-29T12:10:57.041Z,8.9
2022-11-29T12:12:09.925Z,8.9
2022-11-29T12:13:23.238Z,8.9
2022-11-29T12:14:36.242Z,8.9
2022-11-29T12:15:49.548Z,8.9
2022-11-29T12:17:02.362Z,8.9
2022-11-29T12:19:28.764Z,8.9
2022-11-29T12:21:54.132Z,8.9
2022-11-29T12:23:07.212Z,8.9
2022-11-29T12:26:56.773Z,8.9
2022-11-29T12:27:59.211Z,8.9
2022-11-29T12:29:12.189Z,8.9
2022-11-29T12:32:51.041Z,8.9
2022-11-29T12:34:04.163Z,8.9
2022-11-29T12:35:18.908Z,8.9
2022-11-29T12:36:29.994Z,8.9
2022-11-29T12:37:43.227Z,8.9
2022-11-29T12:38:56.248Z,8.9
2022-11-29T12:43:48.153Z,8.9
2022-11-29T12:45:01.386Z,8.9
2022-11-29T12:46:14.090Z,8.9
2022-11-29T12:47:35.499Z,8.9
2022-11-29T12:48:40.188Z,8.9
2022-11-29T12:51:05.893Z,8.9
2022-11-29T12:52:19.043Z,8.9
2022-11-29T12:53:32.061Z,8.9
2022-11-29T12:57:10.886Z,8.9
2022-11-29T12:58:24.306Z,8.9
2022-11-29T13:00:49.926Z,8.9
2022-11-29T13:03:16.080Z,8.9
2022-11-29T13:04:29.545Z,8.9
2022-11-29T13:05:42.290Z,8.9
2022-11-29T13:08:08.173Z,8.9
2022-11-29T13:11:47.232Z,8.9
2022-11-29T13:14:41.314Z,8.9
2022-11-29T13:15:26.042Z,8.9
2022-11-29T13:17:52.302Z,8.9
2022-11-29T13:21:31.136Z,8.9
2022-11-29T13:22:44.566Z,8.9
2022-11-29T13:24:09.002Z,8.9
2022-11-29T13:25:10.197Z,8.9
2022-11-29T13:26:23.158Z,8.9
2022-11-29T13:27:36.098Z,8.9
2022-11-29T13:28:49.312Z,8.9
2022-11-29T13:31:15.130Z,8.9
2022-11-29T13:32:28.179Z,8.9
2022-11-29T13:33:41.240Z,8.9
2022-11-29T13:34:54.298Z,8.9
2022-11-29T13:36:07.049Z,8.9
2022-11-29T13:38:33.592Z,8.9
2022-11-29T13:39:46.013Z,8.9
2022-11-29T13:40:59.241Z,8.9
2022-11-29T13:42:12.223Z,8.7
2022-11-29T13:43:25.278Z,8.7
2022-11-29T13:44:38.654Z,8.7
2022-11-29T13:45:51.197Z,8.7
2022-11-29T13:47:04.235Z,8.7
2022-11-29T13:48:17.405Z,8.7
2022-11-29T13:49:30.127Z,8.7
2022-11-29T13:50:43.227Z,8.7
2022-11-29T13:51:56.232Z,8.7
2022-11-29T13:53:09.207Z,8.7
2022-11-29T13:54:22.549Z,8.7
2022-11-29T13:55:35.295Z,8.7
2022-11-29T13:56:48.653Z,8.7
2022-11-29T13:58:15.875Z,8.7
2022-11-29T13:59:14.592Z,8.8
2022-11-29T14:00:27.308Z,8.8
2022-11-29T14:01:40.227Z,8.8
2022-11-29T14:02:53.460Z,8.8
2022-11-29T14:05:19.369Z,8.8
2022-11-29T14:06:32.216Z,8.8
2022-11-29T14:10:11.347Z,8.8
2022-11-29T14:11:24.907Z,8.8
2022-11-29T14:12:36.958Z,8.8
2022-11-29T14:13:50.075Z,8.8
2022-11-29T14:15:03.107Z,8.8
2022-11-29T14:17:29.293Z,8.7
2022-11-29T14:18:42.377Z,8.7
2022-11-29T14:19:55.326Z,8.7
2022-11-29T14:21:08.530Z,8.7
2022-11-29T14:22:21.194Z,8.7
2022-11-29T14:24:47.208Z,8.7
2022-11-29T14:28:26.247Z,8.7
2022-11-29T14:29:39.254Z,8.8
2022-11-29T14:30:52.205Z,8.7
2022-11-29T14:33:18.199Z,8.8
2022-11-29T14:34:31.310Z,8.8
2022-11-29T14:36:57.202Z,8.8
2022-11-29T14:39:22.903Z,8.8
2022-11-29T14:40:36.027Z,8.8
2022-11-29T14:41:49.246Z,8.8
2022-11-29T14:43:02.062Z,8.7
2022-11-29T14:44:15.179Z,8.7
2022-11-29T14:45:28.167Z,8.7
2022-11-29T14:46:41.231Z,8.7
2022-11-29T14:47:54.228Z,8.8
2022-11-29T14:49:07.136Z,8.7
2022-11-29T14:51:33.224Z,8.7
2022-11-29T14:52:46.224Z,8.7
2022-11-29T14:53:59.230Z,8.7
2022-11-29T14:55:12.231Z,8.7
2022-11-29T14:56:25.186Z,8.7
2022-11-29T14:57:38.218Z,8.7
2022-11-29T14:58:51.216Z,8.7
2022-11-29T15:00:04.702Z,8.7
2022-11-29T15:01:17.186Z,8.7
2022-11-29T15:02:30.226Z,8.7
2022-11-29T15:03:43.374Z,8.7
2022-11-29T15:04:56.139Z,8.7
2022-11-29T15:06:09.270Z,8.5
2022-11-29T15:07:22.218Z,8.5
2022-11-29T15:09:48.563Z,8.5
2022-11-29T15:11:00.920Z,8.5
2022-11-29T15:12:14.693Z,8.5
2022-11-29T15:13:26.918Z,8.5
2022-11-29T15:14:40.259Z,8.5
2022-11-29T15:15:53.240Z,8.5
2022-11-29T15:17:06.669Z,8.5
2022-11-29T15:18:19.765Z,8.5
2022-11-29T15:19:32.418Z,8.5
2022-11-29T15:21:58.094Z,8.6
2022-11-29T15:23:11.329Z,8.6
2022-11-29T15:24:28.088Z,8.4
2022-11-29T15:25:37.178Z,8.4
2022-11-29T15:26:50.053Z,8.4
2022-11-29T15:28:03.202Z,8.4
2022-11-29T15:29:16.281Z,8.4
2022-11-29T15:30:28.900Z,8.4
2022-11-29T15:31:42.325Z,8.4
2022-11-29T15:32:55.220Z,8.4
2022-11-29T15:34:10.575Z,8.4
2022-11-29T15:35:21.751Z,8.4
2022-11-29T15:36:34.056Z,8.4
2022-11-29T15:37:47.187Z,8.4
2022-11-29T15:39:00.209Z,8.3
2022-11-29T15:40:13.327Z,8.3
2022-11-29T15:41:26.776Z,8.3
2022-11-29T15:42:39.182Z,8.3
2022-11-29T15:43:52.425Z,8.3
2022-11-29T15:45:05.345Z,8.3
2022-11-29T15:46:18.149Z,8.3
2022-11-29T15:47:31.233Z,8.3
2022-11-29T15:48:44.194Z,8.3
2022-11-29T15:49:57.713Z,8.2
2022-11-29T15:51:10.455Z,8.1
2022-11-29T15:52:23.178Z,8.2
2022-11-29T15:53:36.178Z,8.1
2022-11-29T15:54:49.290Z,8.2
2022-11-29T15:56:02.493Z,8.2
2022-11-29T15:57:15.057Z,8.2
2022-11-29T15:58:28.324Z,8.2
2022-11-29T15:59:41.336Z,8.1
2022-11-29T16:00:54.399Z,8.1
2022-11-29T16:02:07.795Z,8.1
2022-11-29T16:03:20.216Z,8.1
2022-11-29T16:04:33.242Z,8.1
2022-11-29T16:05:46.227Z,8.1
2022-11-29T16:06:58.953Z,8.1
2022-11-29T16:08:12.280Z,8.1
2022-11-29T16:09:25.229Z,7.9
2022-11-29T16:10:38.259Z,7.9
2022-11-29T16:11:51.102Z,7.9
2022-11-29T16:13:04.230Z,7.9
2022-11-29T16:14:17.218Z,7.9
2022-11-29T16:15:30.202Z,7.9
2022-11-29T16:16:43.191Z,7.9
2022-11-29T16:17:56.203Z,7.9
2022-11-29T16:19:09.143Z,7.9
2022-11-29T16:20:22.219Z,7.9
2022-11-29T16:21:35.211Z,7.9
2022-11-29T16:22:48.209Z,7.9
2022-11-29T16:25:14.140Z,7.9
2022-11-29T16:26:27.414Z,7.9
2022-11-29T16:27:40.638Z,7.9
2022-11-29T16:28:53.254Z,7.9
2022-11-29T16:30:06.019Z,7.8
2022-11-29T16:32:32.234Z,7.8
2022-11-29T16:33:45.204Z,7.8
2022-11-29T16:34:58.301Z,7.8
2022-11-29T16:36:11.178Z,7.8
2022-11-29T16:37:24.151Z,7.8
2022-11-29T16:38:37.207Z,7.8
2022-11-29T16:39:50.464Z,7.8
2022-11-29T16:41:03.195Z,7.8
2022-11-29T16:42:20.582Z,7.8
2022-11-29T16:44:42.209Z,7.8
2022-11-29T16:45:55.222Z,7.8
2022-11-29T16:47:08.188Z,7.8
2022-11-29T16:48:21.697Z,7.8
2022-11-29T16:49:34.753Z,7.8
2022-11-29T16:50:47.250Z,7.8
2022-11-29T16:52:00.341Z,7.8
2022-11-29T16:53:13.353Z,7.8
2022-11-29T16:54:26.239Z,7.8
2022-11-29T16:55:39.168Z,7.8
2022-11-29T16:56:52.325Z,7.8
2022-11-29T16:58:05.171Z,7.8
2022-11-29T16:59:25.985Z,7.8
2022-11-29T17:00:31.237Z,7.8
2022-11-29T17:01:44.114Z,7.8
2022-11-29T17:02:57.215Z,7.8
2022-11-29T17:04:10.209Z,7.8
2022-11-29T17:05:23.220Z,7.8
2022-11-29T17:06:36.725Z,7.7
2022-11-29T17:07:49.222Z,7.7
2022-11-29T17:09:02.222Z,7.7
2022-11-29T17:10:15.079Z,7.7
2022-11-29T17:11:28.089Z,7.7
2022-11-29T17:12:46.430Z,7.7
2022-11-29T17:13:54.265Z,7.7
2022-11-29T17:15:07.252Z,7.7
2022-11-29T17:16:20.294Z,7.7
2022-11-29T17:17:33.223Z,7.7
2022-11-29T17:18:46.210Z,7.7
2022-11-29T17:19:59.269Z,7.7
2022-11-29T17:21:12.306Z,7.7
2022-11-29T17:22:25.217Z,7.7
2022-11-29T17:23:38.132Z,7.5
2022-11-29T17:24:51.647Z,7.5
2022-11-29T17:26:04.264Z,7.5
2022-11-29T17:27:17.213Z,7.5
2022-11-29T17:28:30.391Z,7.6
2022-11-29T17:29:43.237Z,7.6
2022-11-29T17:30:56.201Z,7.6
2022-11-29T17:32:09.149Z,7.6
2022-11-29T17:33:22.251Z,7.6
2022-11-29T17:34:35.399Z,7.6
2022-11-29T17:35:48.237Z,7.6
2022-11-29T17:37:01.246Z,7.6
2022-11-29T17:38:14.246Z,7.6
2022-11-29T17:39:27.297Z,7.4
2022-11-29T17:40:40.250Z,7.4
2022-11-29T17:41:53.248Z,7.4
2022-11-29T17:43:06.104Z,7.4
2022-11-29T17:44:19.356Z,7.4
2022-11-29T17:45:32.305Z,7.3
2022-11-29T17:46:45.273Z,7.3
2022-11-29T17:47:58.277Z,7.3
2022-11-29T17:49:11.317Z,7.3
2022-11-29T17:50:24.166Z,7.3
2022-11-29T17:51:52.535Z,7.3
2022-11-29T17:52:50.119Z,7.3
2022-11-29T17:54:03.312Z,7.3
2022-11-29T17:55:20.460Z,7.3
2022-11-29T17:56:29.157Z,7.3
2022-11-29T17:57:42.445Z,7.3
2022-11-29T17:58:55.271Z,7.3
2022-11-29T18:01:21.938Z,7.3
2022-11-29T18:02:34.208Z,7.3
2022-11-29T18:03:47.277Z,7.3
2022-11-29T18:05:00.286Z,7.3
2022-11-29T18:06:13.131Z,7.3
2022-11-29T18:07:26.316Z,7.3
2022-11-29T18:08:39.158Z,7.3
2022-11-29T18:09:52.445Z,7.3
2022-11-29T18:11:05.234Z,7.3
2022-11-29T18:12:18.175Z,7.2
2022-11-29T18:13:31.174Z,7.2
2022-11-29T18:14:44.251Z,7.2
2022-11-29T18:15:57.382Z,7.1
2022-11-29T18:17:10.287Z,7.1
2022-11-29T18:18:23.228Z,6.9
2022-11-29T18:19:36.583Z,6.9
2022-11-29T18:20:49.226Z,6.9
2022-11-29T18:22:02.257Z,6.9
2022-11-29T18:23:15.294Z,6.9
2022-11-29T18:24:28.360Z,6.9
2022-11-29T18:25:41.240Z,6.8
2022-11-29T18:26:54.127Z,6.8
2022-11-29T18:28:07.263Z,6.8
2022-11-29T18:29:20.327Z,6.7
2022-11-29T18:30:33.492Z,6.7
2022-11-29T18:31:46.265Z,6.7
2022-11-29T18:32:59.281Z,6.7
2022-11-29T18:34:12.288Z,6.7
2022-11-29T18:36:38.931Z,6.5
2022-11-29T18:38:13.844Z,6.6
2022-11-29T18:39:04.347Z,6.6
2022-11-29T18:40:17.281Z,6.6
2022-11-29T18:41:30.311Z,6.5
2022-11-29T18:42:43.318Z,6.4
2022-11-29T18:43:56.197Z,6.4
2022-11-29T18:45:09.272Z,6.3
2022-11-29T18:46:22.309Z,6.3
2022-11-29T18:47:35.328Z,6.3
2022-11-29T18:48:48.216Z,6.3
2022-11-29T18:50:01.268Z,6.3
2022-11-29T18:51:14.254Z,6.3
2022-11-29T18:52:27.619Z,6.3
2022-11-29T18:53:40.130Z,6.3
2022-11-29T18:54:53.266Z,6.3
2022-11-29T18:56:06.157Z,6.1
2022-11-29T18:57:19.258Z,6.1
2022-11-29T18:58:32.321Z,6.2
2022-11-29T18:59:45.175Z,6.2
2022-11-29T19:00:58.339Z,6.2
2022-11-29T19:02:11.071Z,6.1
2022-11-29T19:03:24.114Z,6.1
2022-11-29T19:04:37.140Z,6.1
2022-11-29T19:05:50.589Z,6.1
2022-11-29T19:07:03.256Z,6.1
2022-11-29T19:08:15.985Z,6.1
2022-11-29T19:09:29.282Z,6.1
2022-11-29T19:10:42.187Z,6.1
2022-11-29T19:11:55.263Z,6.1
2022-11-29T19:13:08.032Z,5.9
2022-11-29T19:14:21.661Z,5.9
2022-11-29T19:15:34.204Z,5.9
2022-11-29T19:16:47.450Z,5.9
2022-11-29T19:18:00.162Z,5.9
2022-11-29T19:19:13.507Z,6.1
2022-11-29T19:20:26.244Z,6.1
2022-11-29T19:21:39.225Z,6.1
2022-11-29T19:22:54.875Z,6.1
2022-11-29T19:24:05.217Z,6.1
2022-11-29T19:25:18.176Z,6.1
2022-11-29T19:26:31.672Z,6.1
2022-11-29T19:27:44.139Z,5.9
2022-11-29T19:28:57.366Z,5.9
2022-11-29T19:30:10.172Z,5.9
2022-11-29T19:31:23.346Z,5.9
2022-11-29T19:32:36.298Z,5.9
2022-11-29T19:33:50.175Z,5.9
2022-11-29T19:35:02.288Z,5.9
2022-11-29T19:36:15.622Z,5.9
2022-11-29T19:37:28.630Z,5.9
2022-11-29T19:38:41.376Z,5.9
2022-11-29T19:39:54.292Z,6.1
2022-11-29T19:41:07.465Z,6.1
2022-11-29T19:42:20.260Z,6.1
2022-11-29T19:43:33.886Z,6.1
2022-11-29T19:45:15.157Z,6.1
2022-11-29T19:45:59.337Z,6.1